sensor_id;sensor_type;location;lat;lon;timestamp;P1;durP1;ratioP1;P2;durP2;ratioP2
40745;SDS011;26454;51.164;4.488;2022-11-20T00:02:01;31.55;;;22.42;;
40745;SDS011;26454;51.164;4.488;2022-11-20T00:04:27;32.78;;;22.75;;
40745;SDS011;26454;51.164;4.488;2022-11-20T00:06:54;33.95;;;24.20;;
40745;SDS011;26454;51.164;4.488;2022-11-20T00:09:21;33.78;;;23.58;;
40745;SDS011;26454;51.164;4.488;2022-11-20T00:11:48;30.42;;;21.85;;
40745;SDS011;26454;51.164;4.488;2022-11-20T00:14:23;34.63;;;23.60;;
40745;SDS011;26454;51.164;4.488;2022-11-20T00:16:49;36.78;;;24.40;;
40745;SDS011;26454;51.164;4.488;2022-11-20T00:19:16;33.63;;;24.60;;
40745;SDS011;26454;51.164;4.488;2022-11-20T00:21:43;35.97;;;23.85;;
40745;SDS011;26454;51.164;4.488;2022-11-20T00:24:09;32.65;;;23.23;;
40745;SDS011;26454;51.164;4.488;2022-11-20T00:26:35;32.30;;;22.73;;
40745;SDS011;26454;51.164;4.488;2022-11-20T00:29:02;33.33;;;23.10;;
40745;SDS011;26454;51.164;4.488;2022-11-20T00:31:30;32.42;;;21.88;;
40745;SDS011;26454;51.164;4.488;2022-11-20T00:33:57;31.63;;;22.55;;
40745;SDS011;26454;51.164;4.488;2022-11-20T00:36:24;32.90;;;22.17;;
40745;SDS011;26454;51.164;4.488;2022-11-20T00:38:58;31.15;;;23.00;;
40745;SDS011;26454;51.164;4.488;2022-11-20T00:41:25;29.55;;;22.15;;
40745;SDS011;26454;51.164;4.488;2022-11-20T00:43:54;29.50;;;21.42;;
40745;SDS011;26454;51.164;4.488;2022-11-20T00:46:22;32.35;;;21.30;;
40745;SDS011;26454;51.164;4.488;2022-11-20T00:48:49;33.88;;;23.45;;
40745;SDS011;26454;51.164;4.488;2022-11-20T00:51:18;28.92;;;20.90;;
40745;SDS011;26454;51.164;4.488;2022-11-20T00:53:46;31.27;;;22.80;;
40745;SDS011;26454;51.164;4.488;2022-11-20T00:56:13;30.15;;;21.88;;
40745;SDS011;26454;51.164;4.488;2022-11-20T00:58:40;28.55;;;21.77;;
40745;SDS011;26454;51.164;4.488;2022-11-20T01:01:09;29.98;;;21.67;;
40745;SDS011;26454;51.164;4.488;2022-11-20T01:03:36;32.15;;;22.88;;
40745;SDS011;26454;51.164;4.488;2022-11-20T01:06:11;30.65;;;22.83;;
40745;SDS011;26454;51.164;4.488;2022-11-20T01:08:37;31.60;;;23.05;;
40745;SDS011;26454;51.164;4.488;2022-11-20T01:11:07;32.30;;;23.73;;
40745;SDS011;26454;51.164;4.488;2022-11-20T01:13:35;30.77;;;21.40;;
40745;SDS011;26454;51.164;4.488;2022-11-20T01:16:13;30.08;;;21.80;;
40745;SDS011;26454;51.164;4.488;2022-11-20T01:18:44;35.47;;;22.70;;
40745;SDS011;26454;51.164;4.488;2022-11-20T01:21:23;28.75;;;21.92;;
40745;SDS011;26454;51.164;4.488;2022-11-20T01:23:49;30.70;;;23.35;;
40745;SDS011;26454;51.164;4.488;2022-11-20T01:26:19;34.63;;;23.40;;
40745;SDS011;26454;51.164;4.488;2022-11-20T01:28:45;34.47;;;23.83;;
40745;SDS011;26454;51.164;4.488;2022-11-20T01:33:39;32.67;;;22.70;;
40745;SDS011;26454;51.164;4.488;2022-11-20T01:36:06;36.50;;;24.65;;
40745;SDS011;26454;51.164;4.488;2022-11-20T01:38:32;32.67;;;23.92;;
40745;SDS011;26454;51.164;4.488;2022-11-20T01:40:58;31.67;;;24.02;;
40745;SDS011;26454;51.164;4.488;2022-11-20T01:43:25;30.83;;;22.50;;
40745;SDS011;26454;51.164;4.488;2022-11-20T01:46:12;33.10;;;23.08;;
40745;SDS011;26454;51.164;4.488;2022-11-20T01:48:42;35.75;;;25.10;;
40745;SDS011;26454;51.164;4.488;2022-11-20T01:53:35;32.08;;;23.38;;
40745;SDS011;26454;51.164;4.488;2022-11-20T01:56:02;37.17;;;23.75;;
40745;SDS011;26454;51.164;4.488;2022-11-20T01:58:33;32.63;;;23.27;;
40745;SDS011;26454;51.164;4.488;2022-11-20T02:01:00;33.58;;;24.35;;
40745;SDS011;26454;51.164;4.488;2022-11-20T02:03:27;34.33;;;25.90;;
40745;SDS011;26454;51.164;4.488;2022-11-20T02:06:16;35.28;;;25.10;;
40745;SDS011;26454;51.164;4.488;2022-11-20T02:08:40;37.30;;;25.20;;
40745;SDS011;26454;51.164;4.488;2022-11-20T02:11:06;34.15;;;24.35;;
40745;SDS011;26454;51.164;4.488;2022-11-20T02:13:33;32.63;;;23.50;;
40745;SDS011;26454;51.164;4.488;2022-11-20T02:16:12;30.92;;;22.83;;
40745;SDS011;26454;51.164;4.488;2022-11-20T02:18:41;31.25;;;23.48;;
40745;SDS011;26454;51.164;4.488;2022-11-20T02:26:28;32.90;;;23.17;;
40745;SDS011;26454;51.164;4.488;2022-11-20T02:28:55;30.02;;;22.00;;
40745;SDS011;26454;51.164;4.488;2022-11-20T02:31:23;31.50;;;23.23;;
40745;SDS011;26454;51.164;4.488;2022-11-20T02:33:56;30.38;;;22.27;;
40745;SDS011;26454;51.164;4.488;2022-11-20T02:36:23;32.03;;;24.38;;
40745;SDS011;26454;51.164;4.488;2022-11-20T02:38:51;32.92;;;23.40;;
40745;SDS011;26454;51.164;4.488;2022-11-20T02:41:17;35.90;;;24.52;;
40745;SDS011;26454;51.164;4.488;2022-11-20T02:43:44;34.55;;;23.15;;
40745;SDS011;26454;51.164;4.488;2022-11-20T02:46:11;39.83;;;24.58;;
40745;SDS011;26454;51.164;4.488;2022-11-20T02:48:37;37.83;;;26.70;;
40745;SDS011;26454;51.164;4.488;2022-11-20T02:51:03;35.33;;;24.33;;
40745;SDS011;26454;51.164;4.488;2022-11-20T02:53:29;37.88;;;24.98;;
40745;SDS011;26454;51.164;4.488;2022-11-20T02:55:56;36.00;;;24.92;;
40745;SDS011;26454;51.164;4.488;2022-11-20T02:58:22;32.00;;;23.65;;
40745;SDS011;26454;51.164;4.488;2022-11-20T03:00:54;36.20;;;25.27;;
40745;SDS011;26454;51.164;4.488;2022-11-20T03:03:20;40.35;;;25.02;;
40745;SDS011;26454;51.164;4.488;2022-11-20T03:05:47;36.00;;;24.98;;
40745;SDS011;26454;51.164;4.488;2022-11-20T03:08:13;37.35;;;26.40;;
40745;SDS011;26454;51.164;4.488;2022-11-20T03:10:41;35.17;;;24.85;;
40745;SDS011;26454;51.164;4.488;2022-11-20T03:13:07;35.22;;;24.30;;
40745;SDS011;26454;51.164;4.488;2022-11-20T03:15:35;36.88;;;25.65;;
40745;SDS011;26454;51.164;4.488;2022-11-20T03:18:01;37.20;;;24.58;;
40745;SDS011;26454;51.164;4.488;2022-11-20T03:20:29;36.08;;;25.30;;
40745;SDS011;26454;51.164;4.488;2022-11-20T03:22:55;40.97;;;26.98;;
40745;SDS011;26454;51.164;4.488;2022-11-20T03:25:22;35.85;;;25.70;;
40745;SDS011;26454;51.164;4.488;2022-11-20T03:27:48;36.85;;;25.30;;
40745;SDS011;26454;51.164;4.488;2022-11-20T03:30:14;37.42;;;25.17;;
40745;SDS011;26454;51.164;4.488;2022-11-20T03:32:40;37.35;;;26.33;;
40745;SDS011;26454;51.164;4.488;2022-11-20T03:35:06;34.97;;;25.00;;
40745;SDS011;26454;51.164;4.488;2022-11-20T03:37:32;39.13;;;26.10;;
40745;SDS011;26454;51.164;4.488;2022-11-20T03:40:00;39.75;;;27.20;;
40745;SDS011;26454;51.164;4.488;2022-11-20T03:42:26;37.40;;;26.10;;
40745;SDS011;26454;51.164;4.488;2022-11-20T03:45:11;47.10;;;28.65;;
40745;SDS011;26454;51.164;4.488;2022-11-20T03:47:37;40.10;;;26.85;;
40745;SDS011;26454;51.164;4.488;2022-11-20T03:50:04;49.95;;;29.42;;
40745;SDS011;26454;51.164;4.488;2022-11-20T03:52:30;57.30;;;32.60;;
40745;SDS011;26454;51.164;4.488;2022-11-20T03:54:56;63.65;;;36.90;;
40745;SDS011;26454;51.164;4.488;2022-11-20T03:57:22;61.80;;;35.83;;
40745;SDS011;26454;51.164;4.488;2022-11-20T03:59:49;64.47;;;35.22;;
40745;SDS011;26454;51.164;4.488;2022-11-20T04:02:15;56.80;;;33.00;;
40745;SDS011;26454;51.164;4.488;2022-11-20T04:04:41;69.93;;;37.80;;
40745;SDS011;26454;51.164;4.488;2022-11-20T04:07:08;61.88;;;36.28;;
40745;SDS011;26454;51.164;4.488;2022-11-20T04:09:34;57.72;;;35.83;;
40745;SDS011;26454;51.164;4.488;2022-11-20T04:12:01;58.72;;;34.97;;
40745;SDS011;26454;51.164;4.488;2022-11-20T04:14:27;60.00;;;35.10;;
40745;SDS011;26454;51.164;4.488;2022-11-20T04:16:53;62.22;;;34.97;;
40745;SDS011;26454;51.164;4.488;2022-11-20T04:19:19;59.08;;;35.97;;
40745;SDS011;26454;51.164;4.488;2022-11-20T04:21:46;55.90;;;34.90;;
40745;SDS011;26454;51.164;4.488;2022-11-20T04:24:12;64.28;;;36.58;;
40745;SDS011;26454;51.164;4.488;2022-11-20T04:26:38;62.30;;;36.05;;
40745;SDS011;26454;51.164;4.488;2022-11-20T04:29:05;57.08;;;34.38;;
40745;SDS011;26454;51.164;4.488;2022-11-20T04:31:32;59.20;;;34.90;;
40745;SDS011;26454;51.164;4.488;2022-11-20T04:34:00;62.22;;;36.25;;
40745;SDS011;26454;51.164;4.488;2022-11-20T04:36:27;60.38;;;36.60;;
40745;SDS011;26454;51.164;4.488;2022-11-20T04:38:58;55.60;;;33.67;;
40745;SDS011;26454;51.164;4.488;2022-11-20T04:41:26;62.53;;;34.38;;
40745;SDS011;26454;51.164;4.488;2022-11-20T04:43:55;60.40;;;36.03;;
40745;SDS011;26454;51.164;4.488;2022-11-20T04:46:25;56.30;;;35.42;;
40745;SDS011;26454;51.164;4.488;2022-11-20T04:48:52;61.00;;;38.05;;
40745;SDS011;26454;51.164;4.488;2022-11-20T04:51:18;60.08;;;36.83;;
40745;SDS011;26454;51.164;4.488;2022-11-20T04:53:46;60.50;;;37.15;;
40745;SDS011;26454;51.164;4.488;2022-11-20T04:56:13;63.70;;;36.45;;
40745;SDS011;26454;51.164;4.488;2022-11-20T04:58:39;59.28;;;35.65;;
40745;SDS011;26454;51.164;4.488;2022-11-20T05:03:33;60.10;;;35.63;;
40745;SDS011;26454;51.164;4.488;2022-11-20T05:06:00;57.03;;;35.38;;
40745;SDS011;26454;51.164;4.488;2022-11-20T05:08:26;60.38;;;36.28;;
40745;SDS011;26454;51.164;4.488;2022-11-20T05:10:53;69.78;;;39.28;;
40745;SDS011;26454;51.164;4.488;2022-11-20T05:13:19;56.42;;;34.78;;
40745;SDS011;26454;51.164;4.488;2022-11-20T05:15:45;59.90;;;36.45;;
40745;SDS011;26454;51.164;4.488;2022-11-20T05:18:12;63.22;;;37.53;;
40745;SDS011;26454;51.164;4.488;2022-11-20T05:20:39;61.38;;;36.50;;
40745;SDS011;26454;51.164;4.488;2022-11-20T05:23:06;55.38;;;34.38;;
40745;SDS011;26454;51.164;4.488;2022-11-20T05:25:32;58.83;;;36.45;;
40745;SDS011;26454;51.164;4.488;2022-11-20T05:27:58;54.63;;;34.42;;
40745;SDS011;26454;51.164;4.488;2022-11-20T05:30:24;65.72;;;36.38;;
40745;SDS011;26454;51.164;4.488;2022-11-20T05:32:50;59.45;;;36.00;;
40745;SDS011;26454;51.164;4.488;2022-11-20T05:35:16;70.75;;;38.40;;
40745;SDS011;26454;51.164;4.488;2022-11-20T05:37:44;61.10;;;36.90;;
40745;SDS011;26454;51.164;4.488;2022-11-20T05:40:11;69.43;;;38.95;;
40745;SDS011;26454;51.164;4.488;2022-11-20T05:42:37;69.82;;;37.75;;
40745;SDS011;26454;51.164;4.488;2022-11-20T05:45:04;69.20;;;37.25;;
40745;SDS011;26454;51.164;4.488;2022-11-20T05:47:31;60.67;;;37.25;;
40745;SDS011;26454;51.164;4.488;2022-11-20T05:49:59;61.53;;;36.88;;
40745;SDS011;26454;51.164;4.488;2022-11-20T05:52:30;64.20;;;36.25;;
40745;SDS011;26454;51.164;4.488;2022-11-20T05:54:56;69.40;;;41.30;;
40745;SDS011;26454;51.164;4.488;2022-11-20T05:57:22;74.95;;;40.15;;
40745;SDS011;26454;51.164;4.488;2022-11-20T05:59:48;64.60;;;36.10;;
40745;SDS011;26454;51.164;4.488;2022-11-20T06:02:14;59.38;;;37.72;;
40745;SDS011;26454;51.164;4.488;2022-11-20T06:04:42;64.88;;;36.63;;
40745;SDS011;26454;51.164;4.488;2022-11-20T06:07:09;73.90;;;38.97;;
40745;SDS011;26454;51.164;4.488;2022-11-20T06:09:35;64.32;;;35.25;;
40745;SDS011;26454;51.164;4.488;2022-11-20T06:12:01;67.57;;;39.65;;
40745;SDS011;26454;51.164;4.488;2022-11-20T06:14:29;78.70;;;41.13;;
40745;SDS011;26454;51.164;4.488;2022-11-20T06:16:55;77.15;;;40.97;;
40745;SDS011;26454;51.164;4.488;2022-11-20T06:19:22;71.38;;;41.42;;
40745;SDS011;26454;51.164;4.488;2022-11-20T06:21:49;68.32;;;40.28;;
40745;SDS011;26454;51.164;4.488;2022-11-20T06:24:16;70.00;;;40.38;;
40745;SDS011;26454;51.164;4.488;2022-11-20T06:26:43;82.50;;;43.03;;
40745;SDS011;26454;51.164;4.488;2022-11-20T06:29:09;65.15;;;36.85;;
40745;SDS011;26454;51.164;4.488;2022-11-20T06:31:36;61.47;;;38.55;;
40745;SDS011;26454;51.164;4.488;2022-11-20T06:34:03;63.53;;;37.67;;
40745;SDS011;26454;51.164;4.488;2022-11-20T06:36:40;63.35;;;37.90;;
40745;SDS011;26454;51.164;4.488;2022-11-20T06:39:07;69.18;;;38.45;;
40745;SDS011;26454;51.164;4.488;2022-11-20T06:41:33;68.00;;;38.58;;
40745;SDS011;26454;51.164;4.488;2022-11-20T06:44:00;77.57;;;42.53;;
40745;SDS011;26454;51.164;4.488;2022-11-20T06:46:26;70.07;;;39.15;;
40745;SDS011;26454;51.164;4.488;2022-11-20T06:48:53;64.88;;;38.47;;
40745;SDS011;26454;51.164;4.488;2022-11-20T06:51:19;69.38;;;38.80;;
40745;SDS011;26454;51.164;4.488;2022-11-20T06:53:46;62.33;;;39.58;;
40745;SDS011;26454;51.164;4.488;2022-11-20T06:56:12;71.65;;;40.65;;
40745;SDS011;26454;51.164;4.488;2022-11-20T06:58:38;62.75;;;36.92;;
40745;SDS011;26454;51.164;4.488;2022-11-20T07:01:08;67.22;;;39.15;;
40745;SDS011;26454;51.164;4.488;2022-11-20T07:03:35;65.60;;;36.47;;
40745;SDS011;26454;51.164;4.488;2022-11-20T07:06:02;64.20;;;38.97;;
40745;SDS011;26454;51.164;4.488;2022-11-20T07:08:28;69.85;;;38.97;;
40745;SDS011;26454;51.164;4.488;2022-11-20T07:10:58;67.47;;;36.92;;
40745;SDS011;26454;51.164;4.488;2022-11-20T07:13:25;61.20;;;37.28;;
40745;SDS011;26454;51.164;4.488;2022-11-20T07:15:51;71.65;;;39.35;;
40745;SDS011;26454;51.164;4.488;2022-11-20T07:18:26;57.80;;;35.60;;
40745;SDS011;26454;51.164;4.488;2022-11-20T07:20:52;60.15;;;37.90;;
40745;SDS011;26454;51.164;4.488;2022-11-20T07:23:18;67.32;;;39.75;;
40745;SDS011;26454;51.164;4.488;2022-11-20T07:25:44;71.38;;;39.25;;
40745;SDS011;26454;51.164;4.488;2022-11-20T07:28:10;61.58;;;37.83;;
40745;SDS011;26454;51.164;4.488;2022-11-20T07:30:36;61.00;;;36.88;;
40745;SDS011;26454;51.164;4.488;2022-11-20T07:33:03;61.90;;;36.08;;
40745;SDS011;26454;51.164;4.488;2022-11-20T07:35:29;66.55;;;37.92;;
40745;SDS011;26454;51.164;4.488;2022-11-20T07:37:55;81.13;;;42.75;;
40745;SDS011;26454;51.164;4.488;2022-11-20T07:40:23;59.80;;;36.80;;
40745;SDS011;26454;51.164;4.488;2022-11-20T07:42:54;68.50;;;38.75;;
40745;SDS011;26454;51.164;4.488;2022-11-20T07:45:23;72.90;;;38.58;;
40745;SDS011;26454;51.164;4.488;2022-11-20T07:47:50;61.22;;;36.15;;
40745;SDS011;26454;51.164;4.488;2022-11-20T07:50:19;59.55;;;34.45;;
40745;SDS011;26454;51.164;4.488;2022-11-20T07:52:45;56.90;;;34.90;;
40745;SDS011;26454;51.164;4.488;2022-11-20T07:55:17;59.95;;;35.53;;
40745;SDS011;26454;51.164;4.488;2022-11-20T07:57:44;55.45;;;34.30;;
40745;SDS011;26454;51.164;4.488;2022-11-20T08:00:11;63.10;;;36.53;;
40745;SDS011;26454;51.164;4.488;2022-11-20T08:02:38;54.28;;;34.30;;
40745;SDS011;26454;51.164;4.488;2022-11-20T08:05:04;61.35;;;35.22;;
40745;SDS011;26454;51.164;4.488;2022-11-20T08:07:34;55.60;;;35.00;;
40745;SDS011;26454;51.164;4.488;2022-11-20T08:10:03;57.38;;;33.97;;
40745;SDS011;26454;51.164;4.488;2022-11-20T08:12:31;61.20;;;37.30;;
40745;SDS011;26454;51.164;4.488;2022-11-20T08:15:15;59.42;;;33.80;;
40745;SDS011;26454;51.164;4.488;2022-11-20T08:17:41;56.22;;;33.67;;
40745;SDS011;26454;51.164;4.488;2022-11-20T08:20:09;62.38;;;34.72;;
40745;SDS011;26454;51.164;4.488;2022-11-20T08:22:36;57.15;;;33.10;;
40745;SDS011;26454;51.164;4.488;2022-11-20T08:25:02;60.80;;;35.05;;
40745;SDS011;26454;51.164;4.488;2022-11-20T08:27:31;54.53;;;31.55;;
40745;SDS011;26454;51.164;4.488;2022-11-20T08:29:57;49.28;;;31.75;;
40745;SDS011;26454;51.164;4.488;2022-11-20T08:32:23;55.05;;;32.78;;
40745;SDS011;26454;51.164;4.488;2022-11-20T08:34:50;58.35;;;33.40;;
40745;SDS011;26454;51.164;4.488;2022-11-20T08:37:17;57.40;;;33.70;;
40745;SDS011;26454;51.164;4.488;2022-11-20T08:39:43;57.05;;;33.40;;
40745;SDS011;26454;51.164;4.488;2022-11-20T08:42:10;69.75;;;37.22;;
40745;SDS011;26454;51.164;4.488;2022-11-20T08:44:36;58.55;;;34.38;;
40745;SDS011;26454;51.164;4.488;2022-11-20T08:47:03;61.45;;;34.88;;
40745;SDS011;26454;51.164;4.488;2022-11-20T08:49:30;58.63;;;33.20;;
40745;SDS011;26454;51.164;4.488;2022-11-20T08:51:56;57.97;;;34.45;;
40745;SDS011;26454;51.164;4.488;2022-11-20T08:54:27;54.78;;;33.72;;
40745;SDS011;26454;51.164;4.488;2022-11-20T08:56:54;61.20;;;37.03;;
40745;SDS011;26454;51.164;4.488;2022-11-20T08:59:21;55.58;;;33.20;;
40745;SDS011;26454;51.164;4.488;2022-11-20T09:01:48;58.22;;;33.95;;
40745;SDS011;26454;51.164;4.488;2022-11-20T09:04:14;58.85;;;33.00;;
40745;SDS011;26454;51.164;4.488;2022-11-20T09:06:42;64.72;;;34.28;;
40745;SDS011;26454;51.164;4.488;2022-11-20T09:09:08;59.97;;;33.78;;
40745;SDS011;26454;51.164;4.488;2022-11-20T09:11:34;59.97;;;32.88;;
40745;SDS011;26454;51.164;4.488;2022-11-20T09:14:01;62.63;;;34.30;;
40745;SDS011;26454;51.164;4.488;2022-11-20T09:16:30;61.83;;;35.13;;
40745;SDS011;26454;51.164;4.488;2022-11-20T09:18:56;65.38;;;34.60;;
40745;SDS011;26454;51.164;4.488;2022-11-20T09:21:22;61.03;;;33.78;;
40745;SDS011;26454;51.164;4.488;2022-11-20T09:23:50;60.40;;;35.22;;
40745;SDS011;26454;51.164;4.488;2022-11-20T09:26:17;64.50;;;34.35;;
40745;SDS011;26454;51.164;4.488;2022-11-20T09:28:44;53.38;;;30.98;;
40745;SDS011;26454;51.164;4.488;2022-11-20T09:31:30;62.10;;;33.95;;
40745;SDS011;26454;51.164;4.488;2022-11-20T09:33:57;67.40;;;37.22;;
40745;SDS011;26454;51.164;4.488;2022-11-20T09:36:23;64.03;;;35.03;;
40745;SDS011;26454;51.164;4.488;2022-11-20T09:38:52;60.47;;;33.70;;
40745;SDS011;26454;51.164;4.488;2022-11-20T09:41:29;64.95;;;34.40;;
40745;SDS011;26454;51.164;4.488;2022-11-20T09:47:19;70.25;;;36.15;;
40745;SDS011;26454;51.164;4.488;2022-11-20T09:51:59;67.35;;;34.55;;
40745;SDS011;26454;51.164;4.488;2022-11-20T09:54:30;74.75;;;36.40;;
40745;SDS011;26454;51.164;4.488;2022-11-20T09:56:59;71.53;;;35.88;;
40745;SDS011;26454;51.164;4.488;2022-11-20T09:59:45;67.28;;;36.35;;
40745;SDS011;26454;51.164;4.488;2022-11-20T10:02:15;66.00;;;33.33;;
40745;SDS011;26454;51.164;4.488;2022-11-20T10:04:43;73.07;;;36.88;;
40745;SDS011;26454;51.164;4.488;2022-11-20T10:07:16;78.20;;;37.88;;
40745;SDS011;26454;51.164;4.488;2022-11-20T10:09:46;85.28;;;41.60;;
40745;SDS011;26454;51.164;4.488;2022-11-20T10:15:10;86.93;;;42.00;;
40745;SDS011;26454;51.164;4.488;2022-11-20T10:17:58;80.00;;;39.88;;
40745;SDS011;26454;51.164;4.488;2022-11-20T10:23:04;93.07;;;43.55;;
40745;SDS011;26454;51.164;4.488;2022-11-20T10:28:08;89.07;;;40.63;;
40745;SDS011;26454;51.164;4.488;2022-11-20T10:30:37;95.00;;;42.60;;
40745;SDS011;26454;51.164;4.488;2022-11-20T10:33:17;96.07;;;42.40;;
40745;SDS011;26454;51.164;4.488;2022-11-20T10:35:50;117.78;;;47.13;;
40745;SDS011;26454;51.164;4.488;2022-11-20T10:38:20;92.85;;;40.67;;
40745;SDS011;26454;51.164;4.488;2022-11-20T10:40:54;94.32;;;41.50;;
40745;SDS011;26454;51.164;4.488;2022-11-20T10:43:41;92.32;;;40.58;;
40745;SDS011;26454;51.164;4.488;2022-11-20T10:46:14;107.53;;;44.17;;
40745;SDS011;26454;51.164;4.488;2022-11-20T10:48:41;93.35;;;41.05;;
40745;SDS011;26454;51.164;4.488;2022-11-20T10:51:17;93.78;;;41.33;;
40745;SDS011;26454;51.164;4.488;2022-11-20T10:56:19;112.03;;;47.67;;
40745;SDS011;26454;51.164;4.488;2022-11-20T11:01:31;88.88;;;40.40;;
40745;SDS011;26454;51.164;4.488;2022-11-20T11:04:07;92.18;;;38.95;;
40745;SDS011;26454;51.164;4.488;2022-11-20T11:06:40;82.25;;;38.00;;
40745;SDS011;26454;51.164;4.488;2022-11-20T11:09:22;91.13;;;41.00;;
40745;SDS011;26454;51.164;4.488;2022-11-20T11:11:52;91.07;;;38.70;;
40745;SDS011;26454;51.164;4.488;2022-11-20T11:14:19;89.10;;;39.47;;
40745;SDS011;26454;51.164;4.488;2022-11-20T11:16:54;81.75;;;38.30;;
40745;SDS011;26454;51.164;4.488;2022-11-20T11:19:21;96.07;;;41.67;;
40745;SDS011;26454;51.164;4.488;2022-11-20T11:21:52;86.88;;;38.58;;
40745;SDS011;26454;51.164;4.488;2022-11-20T11:24:22;92.60;;;38.80;;
40745;SDS011;26454;51.164;4.488;2022-11-20T11:29:20;88.45;;;37.72;;
40745;SDS011;26454;51.164;4.488;2022-11-20T11:31:47;73.75;;;35.15;;
40745;SDS011;26454;51.164;4.488;2022-11-20T11:34:15;72.95;;;34.75;;
40745;SDS011;26454;51.164;4.488;2022-11-20T11:37:04;75.35;;;36.47;;
40745;SDS011;26454;51.164;4.488;2022-11-20T11:39:29;84.60;;;35.30;;
40745;SDS011;26454;51.164;4.488;2022-11-20T11:41:56;66.60;;;34.58;;
40745;SDS011;26454;51.164;4.488;2022-11-20T11:44:33;74.38;;;34.25;;
40745;SDS011;26454;51.164;4.488;2022-11-20T11:47:43;63.90;;;32.25;;
40745;SDS011;26454;51.164;4.488;2022-11-20T11:50:15;63.70;;;30.85;;
40745;SDS011;26454;51.164;4.488;2022-11-20T11:52:48;66.05;;;33.28;;
40745;SDS011;26454;51.164;4.488;2022-11-20T11:58:14;70.88;;;33.22;;
40745;SDS011;26454;51.164;4.488;2022-11-20T12:00:45;69.28;;;34.15;;
40745;SDS011;26454;51.164;4.488;2022-11-20T12:03:28;64.50;;;32.75;;
40745;SDS011;26454;51.164;4.488;2022-11-20T12:06:05;56.58;;;30.27;;
40745;SDS011;26454;51.164;4.488;2022-11-20T12:11:11;57.42;;;30.55;;
40745;SDS011;26454;51.164;4.488;2022-11-20T12:16:23;52.67;;;28.45;;
40745;SDS011;26454;51.164;4.488;2022-11-20T12:18:51;58.00;;;28.48;;
40745;SDS011;26454;51.164;4.488;2022-11-20T12:36:34;52.78;;;25.50;;
40745;SDS011;26454;51.164;4.488;2022-11-20T13:00:54;19.30;;;8.15;;
40745;SDS011;26454;51.164;4.488;2022-11-20T13:06:21;16.85;;;10.00;;
40745;SDS011;26454;51.164;4.488;2022-11-20T13:08:50;17.23;;;9.80;;
40745;SDS011;26454;51.164;4.488;2022-11-20T13:16:33;18.20;;;9.43;;
40745;SDS011;26454;51.164;4.488;2022-11-20T13:19:08;15.52;;;9.52;;
40745;SDS011;26454;51.164;4.488;2022-11-20T13:24:30;14.85;;;9.45;;
40745;SDS011;26454;51.164;4.488;2022-11-20T13:27:03;13.43;;;8.57;;
40745;SDS011;26454;51.164;4.488;2022-11-20T13:29:31;13.15;;;7.95;;
40745;SDS011;26454;51.164;4.488;2022-11-20T13:32:13;22.08;;;9.55;;
40745;SDS011;26454;51.164;4.488;2022-11-20T13:34:50;19.67;;;8.95;;
40745;SDS011;26454;51.164;4.488;2022-11-20T13:40:04;17.67;;;9.90;;
40745;SDS011;26454;51.164;4.488;2022-11-20T13:42:31;19.10;;;9.48;;
40745;SDS011;26454;51.164;4.488;2022-11-20T13:45:02;20.50;;;9.32;;
40745;SDS011;26454;51.164;4.488;2022-11-20T13:47:28;12.60;;;8.80;;
40745;SDS011;26454;51.164;4.488;2022-11-20T13:50:04;17.73;;;9.30;;
40745;SDS011;26454;51.164;4.488;2022-11-20T13:58:26;13.43;;;9.52;;
40745;SDS011;26454;51.164;4.488;2022-11-20T14:00:59;13.73;;;8.80;;
40745;SDS011;26454;51.164;4.488;2022-11-20T14:03:28;15.52;;;9.68;;
40745;SDS011;26454;51.164;4.488;2022-11-20T14:05:56;14.18;;;9.25;;
40745;SDS011;26454;51.164;4.488;2022-11-20T14:08:37;15.98;;;9.00;;
40745;SDS011;26454;51.164;4.488;2022-11-20T14:11:06;19.30;;;10.13;;
40745;SDS011;26454;51.164;4.488;2022-11-20T14:13:33;19.92;;;10.95;;
40745;SDS011;26454;51.164;4.488;2022-11-20T14:15:59;13.98;;;10.70;;
40745;SDS011;26454;51.164;4.488;2022-11-20T14:18:26;18.30;;;12.13;;
40745;SDS011;26454;51.164;4.488;2022-11-20T14:20:53;17.75;;;10.27;;
40745;SDS011;26454;51.164;4.488;2022-11-20T14:23:26;16.83;;;13.07;;
40745;SDS011;26454;51.164;4.488;2022-11-20T14:25:52;14.88;;;10.18;;
40745;SDS011;26454;51.164;4.488;2022-11-20T14:28:20;29.08;;;13.23;;
40745;SDS011;26454;51.164;4.488;2022-11-20T14:30:48;18.27;;;10.52;;
40745;SDS011;26454;51.164;4.488;2022-11-20T14:33:15;16.60;;;12.13;;
40745;SDS011;26454;51.164;4.488;2022-11-20T14:35:49;17.05;;;11.02;;
40745;SDS011;26454;51.164;4.488;2022-11-20T14:38:17;20.85;;;10.70;;
40745;SDS011;26454;51.164;4.488;2022-11-20T14:40:43;11.13;;;9.73;;
40745;SDS011;26454;51.164;4.488;2022-11-20T14:45:43;15.30;;;9.98;;
40745;SDS011;26454;51.164;4.488;2022-11-20T14:48:17;13.32;;;9.63;;
40745;SDS011;26454;51.164;4.488;2022-11-20T14:50:44;12.32;;;9.07;;
40745;SDS011;26454;51.164;4.488;2022-11-20T14:53:10;13.00;;;8.23;;
40745;SDS011;26454;51.164;4.488;2022-11-20T14:55:37;11.70;;;8.70;;
40745;SDS011;26454;51.164;4.488;2022-11-20T14:58:23;10.10;;;9.07;;
40745;SDS011;26454;51.164;4.488;2022-11-20T15:03:21;8.95;;;8.05;;
40745;SDS011;26454;51.164;4.488;2022-11-20T15:05:49;9.93;;;8.60;;
40745;SDS011;26454;51.164;4.488;2022-11-20T15:08:17;10.30;;;7.97;;
40745;SDS011;26454;51.164;4.488;2022-11-20T15:10:47;9.60;;;8.70;;
40745;SDS011;26454;51.164;4.488;2022-11-20T15:15:54;11.60;;;9.88;;
40745;SDS011;26454;51.164;4.488;2022-11-20T15:18:23;17.48;;;12.55;;
40745;SDS011;26454;51.164;4.488;2022-11-20T15:20:49;11.45;;;10.35;;
40745;SDS011;26454;51.164;4.488;2022-11-20T15:23:17;12.80;;;11.60;;
40745;SDS011;26454;51.164;4.488;2022-11-20T15:25:43;11.30;;;10.13;;
40745;SDS011;26454;51.164;4.488;2022-11-20T15:28:17;15.77;;;10.68;;
40745;SDS011;26454;51.164;4.488;2022-11-20T15:30:46;17.15;;;10.68;;
40745;SDS011;26454;51.164;4.488;2022-11-20T15:33:12;13.88;;;12.43;;
40745;SDS011;26454;51.164;4.488;2022-11-20T15:35:38;15.15;;;13.63;;
40745;SDS011;26454;51.164;4.488;2022-11-20T15:38:04;14.00;;;11.68;;
40745;SDS011;26454;51.164;4.488;2022-11-20T15:40:30;12.93;;;10.35;;
40745;SDS011;26454;51.164;4.488;2022-11-20T15:42:57;15.55;;;10.85;;
40745;SDS011;26454;51.164;4.488;2022-11-20T15:48:08;12.73;;;11.43;;
40745;SDS011;26454;51.164;4.488;2022-11-20T15:50:41;12.23;;;11.02;;
40745;SDS011;26454;51.164;4.488;2022-11-20T15:53:10;13.43;;;11.45;;
40745;SDS011;26454;51.164;4.488;2022-11-20T15:55:36;15.90;;;12.65;;
40745;SDS011;26454;51.164;4.488;2022-11-20T15:58:03;16.70;;;11.38;;
40745;SDS011;26454;51.164;4.488;2022-11-20T16:00:29;16.50;;;12.15;;
40745;SDS011;26454;51.164;4.488;2022-11-20T16:02:55;13.70;;;10.40;;
40745;SDS011;26454;51.164;4.488;2022-11-20T16:05:22;14.23;;;11.25;;
40745;SDS011;26454;51.164;4.488;2022-11-20T16:07:49;15.02;;;11.25;;
40745;SDS011;26454;51.164;4.488;2022-11-20T16:10:17;11.35;;;10.07;;
40745;SDS011;26454;51.164;4.488;2022-11-20T16:12:43;15.13;;;12.23;;
40745;SDS011;26454;51.164;4.488;2022-11-20T16:15:28;20.15;;;12.55;;
40745;SDS011;26454;51.164;4.488;2022-11-20T16:18:17;12.50;;;9.70;;
40745;SDS011;26454;51.164;4.488;2022-11-20T16:20:43;16.25;;;10.70;;
40745;SDS011;26454;51.164;4.488;2022-11-20T16:23:10;16.90;;;11.05;;